createdAt,value
2019-04-03T00:00:34.168Z,6.58
2019-04-03T00:05:31.754Z,6.49
2019-04-03T00:10:29.380Z,6.47
2019-04-03T00:15:26.483Z,6.26
2019-04-03T00:20:23.441Z,6.18
2019-04-03T00:25:21.968Z,6.03
2019-04-03T00:30:21.858Z,5.88
2019-04-03T00:35:18.217Z,5.78
2019-04-03T00:40:15.267Z,5.78
2019-04-03T00:45:12.371Z,5.64
2019-04-03T00:50:09.517Z,5.57
2019-04-03T00:55:06.548Z,5.49
2019-04-03T01:00:15.092Z,5.40
2019-04-03T01:05:12.240Z,5.25
2019-04-03T01:10:09.424Z,5.20
2019-04-03T01:15:07.377Z,5.20
2019-04-03T01:20:07.788Z,5.11
2019-04-03T01:25:08.293Z,4.95
2019-04-03T01:30:06.862Z,4.87
2019-04-03T01:35:04.710Z,4.66
2019-04-03T01:40:03.115Z,4.76
2019-04-03T01:45:00.107Z,4.69
2019-04-03T01:49:58.541Z,4.66
2019-04-03T01:54:55.977Z,4.61
2019-04-03T01:59:53.046Z,4.71
2019-04-03T02:04:50.002Z,4.63
2019-04-03T02:09:47.281Z,4.55
2019-04-03T02:14:44.469Z,4.48
2019-04-03T02:19:41.545Z,4.45
2019-04-03T02:24:38.687Z,4.29
2019-04-03T02:29:35.870Z,4.28
2019-04-03T02:34:34.861Z,4.09
2019-04-03T02:39:31.825Z,4.09
2019-04-03T02:44:29.145Z,4.04
2019-04-03T02:49:27.509Z,3.97
2019-04-03T02:54:29.150Z,3.85
2019-04-03T02:59:26.903Z,4.01
2019-04-03T03:04:24.875Z,3.89
2019-04-03T03:09:21.980Z,3.94
2019-04-03T03:14:19.296Z,3.98
2019-04-03T03:19:16.561Z,4.05
2019-04-03T03:24:14.243Z,3.84
2019-04-03T03:29:17.686Z,3.84
2019-04-03T03:34:10.472Z,3.91
2019-04-03T03:39:10.420Z,3.92
2019-04-03T03:44:09.804Z,4.03
2019-04-03T03:49:05.473Z,4.08
2019-04-03T03:54:03.178Z,3.97
2019-04-03T03:59:00.329Z,4.19
2019-04-03T04:03:57.920Z,4.07
2019-04-03T04:08:54.895Z,4.16
2019-04-03T04:13:52.226Z,4.16
2019-04-03T04:18:49.405Z,4.36
2019-04-03T04:23:46.601Z,4.25
2019-04-03T04:28:44.102Z,4.17
2019-04-03T04:33:41.201Z,4.27
2019-04-03T04:38:38.212Z,4.32
2019-04-03T04:43:35.463Z,4.32
2019-04-03T04:48:32.497Z,4.50
2019-04-03T04:53:30.216Z,4.64
2019-04-03T04:58:27.240Z,4.86
2019-04-03T05:03:24.269Z,5.25
2019-04-03T05:08:21.524Z,5.53
2019-04-03T05:13:18.606Z,5.69
2019-04-03T05:18:15.601Z,6.12
2019-04-03T05:23:12.604Z,6.47
2019-04-03T05:28:09.557Z,6.89
2019-04-03T05:33:09.053Z,7.35
2019-04-03T05:38:06.773Z,8.12
2019-04-03T05:43:04.229Z,8.76
2019-04-03T05:48:01.345Z,9.37
2019-04-03T05:52:58.532Z,10.35
2019-04-03T05:57:55.543Z,10.36
2019-04-03T06:02:53.715Z,10.64
2019-04-03T06:07:51.262Z,10.00
2019-04-03T06:12:54.688Z,10.15
2019-04-03T06:17:55.112Z,10.33
2019-04-03T06:22:52.594Z,10.45
2019-04-03T06:27:49.656Z,10.60
2019-04-03T06:32:50.333Z,11.14
2019-04-03T06:37:48.122Z,11.70
2019-04-03T06:42:45.639Z,11.86
2019-04-03T06:47:43.899Z,12.29
2019-04-03T06:52:40.986Z,12.25
2019-04-03T06:57:39.497Z,12.81
2019-04-03T07:02:36.897Z,12.95
2019-04-03T07:07:36.828Z,13.62
2019-04-03T07:12:35.885Z,13.59
2019-04-03T07:17:33.053Z,13.62
2019-04-03T07:22:32.215Z,14.24
2019-04-03T07:27:36.493Z,14.72
2019-04-03T07:32:35.710Z,15.20
2019-04-03T07:37:33.884Z,15.20
2019-04-03T07:42:32.110Z,15.80
2019-04-03T07:47:29.345Z,15.72
2019-04-03T07:52:30.514Z,16.46
2019-04-03T07:57:29.263Z,16.58
2019-04-03T08:02:26.931Z,16.86
2019-04-03T08:07:24.080Z,17.02
2019-04-03T08:12:21.184Z,17.57
2019-04-03T08:17:20.068Z,17.78
2019-04-03T08:22:20.780Z,18.24
2019-04-03T08:27:18.209Z,19.04
2019-04-03T08:32:18.420Z,19.93
2019-04-03T08:37:27.670Z,20.32
2019-04-03T08:42:19.303Z,20.64
2019-04-03T08:47:21.074Z,20.76
2019-04-03T08:52:18.130Z,20.95
2019-04-03T08:57:19.778Z,21.90
2019-04-03T09:02:16.187Z,21.69
2019-04-03T09:07:13.335Z,21.06
2019-04-03T09:12:10.916Z,21.16
2019-04-03T09:17:09.960Z,21.44
2019-04-03T09:22:09.951Z,22.30
2019-04-03T09:27:10.058Z,22.70
2019-04-03T09:32:09.614Z,22.77
2019-04-03T09:37:07.197Z,22.17
2019-04-03T09:42:04.452Z,21.70
2019-04-03T09:47:05.352Z,21.36
2019-04-03T09:52:04.874Z,21.06
2019-04-03T09:57:04.896Z,20.81
2019-04-03T10:02:01.111Z,21.22
2019-04-03T10:06:59.730Z,22.40
2019-04-03T10:11:57.889Z,22.43
2019-04-03T10:16:57.401Z,21.21
2019-04-03T10:21:54.943Z,22.27
2019-04-03T10:26:56.389Z,22.56
2019-04-03T10:31:55.789Z,23.02
2019-04-03T10:36:52.753Z,22.15
2019-04-03T10:41:49.924Z,21.96
2019-04-03T10:46:49.380Z,22.10
2019-04-03T10:51:46.010Z,21.49
2019-04-03T10:56:44.260Z,21.97
2019-04-03T11:01:44.391Z,21.89
2019-04-03T11:06:41.529Z,21.77
2019-04-03T11:11:39.019Z,20.29
2019-04-03T11:16:39.136Z,20.06
2019-04-03T11:21:36.561Z,20.82
2019-04-03T11:26:36.196Z,20.42
2019-04-03T11:31:39.295Z,20.90
2019-04-03T11:36:33.189Z,20.60
2019-04-03T11:41:32.355Z,20.58
2019-04-03T11:46:32.127Z,20.71
2019-04-03T11:51:33.785Z,21.06
2019-04-03T11:56:31.959Z,21.59
2019-04-03T12:01:30.291Z,21.53
2019-04-03T12:06:27.455Z,21.66
2019-04-03T12:11:24.861Z,20.84
2019-04-03T12:16:24.059Z,21.36
2019-04-03T12:21:21.351Z,21.56
2019-04-03T12:26:22.393Z,21.64
2019-04-03T12:31:19.586Z,21.92
2019-04-03T12:36:16.996Z,22.27
2019-04-03T12:41:14.584Z,21.92
2019-04-03T12:46:13.628Z,21.89
2019-04-03T12:51:11.059Z,21.87
2019-04-03T12:56:08.707Z,21.69
2019-04-03T13:01:11.324Z,21.65
2019-04-03T13:06:04.969Z,21.10
2019-04-03T13:11:03.941Z,21.16
2019-04-03T13:16:00.996Z,21.70
2019-04-03T13:20:58.323Z,21.70
2019-04-03T13:25:55.497Z,21.03
2019-04-03T13:30:53.114Z,21.30
2019-04-03T13:35:51.320Z,21.14
2019-04-03T13:40:48.720Z,20.97
2019-04-03T13:45:47.098Z,19.95
2019-04-03T13:50:46.709Z,19.81
2019-04-03T13:55:45.631Z,19.93
2019-04-03T14:00:58.625Z,20.02
2019-04-03T14:05:52.438Z,20.01
2019-04-03T14:10:50.089Z,19.39
2019-04-03T14:15:47.104Z,19.79
2019-04-03T14:20:44.210Z,19.46
2019-04-03T14:25:42.071Z,19.77
2019-04-03T14:30:39.459Z,19.96
2019-04-03T14:35:48.964Z,19.88
2019-04-03T14:40:36.036Z,19.38
2019-04-03T14:45:33.258Z,19.37
2019-04-03T14:50:30.522Z,19.19
2019-04-03T14:55:28.686Z,19.42
2019-04-03T15:00:30.296Z,19.06
2019-04-03T15:05:25.346Z,18.83
2019-04-03T15:10:22.462Z,18.54
2019-04-03T15:15:20.246Z,18.41
2019-04-03T15:20:19.178Z,18.33
2019-04-03T15:25:19.605Z,18.29
2019-04-03T15:30:16.242Z,18.15
2019-04-03T15:35:13.618Z,17.85
2019-04-03T15:40:11.461Z,17.78
2019-04-03T15:45:09.211Z,17.75
2019-04-03T15:50:12.244Z,17.82
2019-04-03T15:55:10.856Z,17.70
2019-04-03T16:00:15.166Z,17.66
2019-04-03T16:05:14.024Z,17.44
2019-04-03T16:10:11.792Z,17.29
2019-04-03T16:15:09.772Z,17.03
2019-04-03T16:20:08.386Z,16.97
2019-04-03T16:25:09.783Z,16.85
2019-04-03T16:30:09.856Z,16.64
2019-04-03T16:35:07.909Z,16.55
2019-04-03T16:40:06.811Z,16.41
2019-04-03T16:45:09.427Z,16.21
2019-04-03T16:50:07.978Z,16.13
2019-04-03T16:55:06.168Z,15.90
2019-04-03T17:00:08.464Z,15.69
2019-04-03T17:05:06.792Z,15.53
2019-04-03T17:10:05.878Z,15.45
2019-04-03T17:15:07.207Z,14.98
2019-04-03T17:20:06.135Z,14.97
2019-04-03T17:25:05.998Z,14.87
2019-04-03T17:30:07.131Z,14.90
2019-04-03T17:35:07.738Z,14.60
2019-04-03T17:40:11.562Z,14.41
2019-04-03T17:45:08.923Z,14.22
2019-04-03T17:50:07.737Z,14.22
2019-04-03T17:55:09.909Z,13.90
2019-04-03T18:00:12.376Z,13.83
2019-04-03T18:05:10.624Z,13.67
2019-04-03T18:10:12.042Z,13.55
2019-04-03T18:15:08.642Z,13.43
2019-04-03T18:20:06.532Z,13.28
2019-04-03T18:25:08.060Z,13.10
2019-04-03T18:30:11.154Z,12.90
2019-04-03T18:35:09.240Z,12.87
2019-04-03T18:40:08.768Z,12.61
2019-04-03T18:45:06.312Z,12.53
2019-04-03T18:50:05.019Z,12.33
2019-04-03T18:55:05.184Z,12.24
2019-04-03T19:00:04.144Z,12.17
2019-04-03T19:05:02.593Z,12.05
2019-04-03T19:10:07.003Z,12.05
2019-04-03T19:14:58.791Z,11.95
2019-04-03T19:20:09.763Z,11.95
2019-04-03T19:24:58.728Z,11.65
2019-04-03T19:29:57.440Z,11.55
2019-04-03T19:34:55.497Z,11.49
2019-04-03T19:39:52.625Z,11.34
2019-04-03T19:44:49.868Z,10.98
2019-04-03T19:49:48.113Z,10.97
2019-04-03T19:54:45.414Z,10.99
2019-04-03T19:59:42.347Z,10.97
2019-04-03T20:04:39.384Z,10.97
2019-04-03T20:09:36.349Z,11.00
2019-04-03T20:14:33.369Z,10.99
2019-04-03T20:19:30.334Z,10.98
2019-04-03T20:24:27.362Z,10.89
2019-04-03T20:29:27.474Z,10.84
2019-04-03T20:34:23.664Z,10.79
2019-04-03T20:39:20.695Z,10.78
2019-04-03T20:44:17.763Z,10.88
2019-04-03T20:49:14.704Z,10.81
2019-04-03T20:54:12.035Z,10.72
2019-04-03T20:59:12.015Z,10.72
2019-04-03T21:04:08.254Z,10.61
2019-04-03T21:09:06.245Z,10.77
2019-04-03T21:14:05.568Z,10.61
2019-04-03T21:19:02.769Z,10.62
2019-04-03T21:23:59.868Z,10.62
2019-04-03T21:28:57.014Z,10.56
2019-04-03T21:33:55.108Z,10.68
2019-04-03T21:38:52.247Z,10.66
2019-04-03T21:43:49.285Z,10.64
2019-04-03T21:48:46.237Z,10.47
2019-04-03T21:53:43.788Z,10.56
2019-04-03T21:58:41.805Z,10.53
2019-04-03T22:03:38.820Z,10.50
2019-04-03T22:08:35.873Z,10.45
2019-04-03T22:13:32.909Z,10.28
2019-04-03T22:18:31.100Z,10.33
2019-04-03T22:23:29.208Z,10.26
2019-04-03T22:28:26.167Z,10.10
2019-04-03T22:33:25.911Z,10.03
2019-04-03T22:38:24.631Z,9.85
2019-04-03T22:43:22.567Z,9.78
2019-04-03T22:48:19.582Z,9.80
2019-04-03T22:53:16.678Z,9.72
2019-04-03T22:58:13.657Z,9.73
2019-04-03T23:03:13.296Z,9.57
2019-04-03T23:08:09.509Z,9.63
2019-04-03T23:13:07.893Z,9.66
2019-04-03T23:18:04.998Z,9.72
2019-04-03T23:23:02.051Z,9.72
2019-04-03T23:27:59.162Z,9.72
2019-04-03T23:32:58.501Z,9.76
2019-04-03T23:37:55.905Z,9.68
2019-04-03T23:42:53.450Z,9.64
2019-04-03T23:47:51.273Z,9.64
2019-04-03T23:52:48.786Z,9.57
2019-04-03T23:57:45.725Z,9.60
